• Join FlightAware (Why Join?)
  • Login
  • US Flag 
04:23AM EST


 

Airport Tracker/Info


-or-


 

Live Flight TrackerFlight Track Log ✈ N143DE ✈ 21-Jan-2014 ✈ KROC - KRIC

Flight Track Log - Related Links

Times and Time Zones

All times are in EST time to prevent confusion due to time zone crossing. See the N143DE flight status page for this flight to view local times or setup timezone preferences in your user account.

Time Position Orientation Groundspeed Altitude Reporting Facility
EST Latitude Longitude Course Direction KTS MPH feet Rate Location/Type
05:48AM 43.1264 -77.6694 75° East 124 143 1,600  Level Cleveland Center
05:49AM 43.1106 -77.6372 124° Southeast 168 193 2,900 2,040 Climbing Cleveland Center
05:49AM 43.1000 -77.6450 208° Southwest 188 216 3,700 2,820 Climbing Cleveland Center
05:50AM 43.0667 -77.6561 194° South 169 194 5,800 2,160 Climbing Cleveland Center
05:51AM 43.0203 -77.6717 194° South 167 192 7,900 1,980 Climbing Cleveland Center
05:52AM 42.9714 -77.6819 189° South 173 199 9,800 1,740 Climbing Cleveland Center
05:53AM 42.9242 -77.6975 194° South 173 199 11,500 1,020 Climbing Cleveland Center
05:54AM 42.8556 -77.7219 195° South 213 245 11,900 240 Climbing Cleveland Center
05:55AM 42.7836 -77.7006 168° South 258 297 12,000 540 Climbing Cleveland Center
05:56AM 42.7172 -77.7042 182° South 240 276 13,000 720 Climbing Cleveland Center
05:57AM 42.6594 -77.7114 185° South 238 274 13,500 540 Climbing Cleveland Center
05:58AM 42.5936 -77.7139 182° South 236 272 14,200 300 Climbing Cleveland Center
05:59AM 42.5267 -77.7172 182° South 241 277 14,200 240 Level Cleveland Center
06:00AM 42.4575 -77.7231 184° South 250 288 14,700 660 Climbing Cleveland Center
06:01AM 42.3919 -77.7228 180° South 236 272 15,600 840 Climbing Cleveland Center
06:02AM 42.3325 -77.7242 181° South 222 255 16,400 660 Climbing Cleveland Center
06:03AM 42.2739 -77.7275 182° South 214 246 17,000 540 Climbing Cleveland Center
06:04AM 42.2150 -77.7306 182° South 212 244 17,600 540 Climbing Cleveland Center
06:05AM 42.1567 -77.7347 183° South 212 244 18,100 420 Climbing Cleveland Center
06:06AM 42.0992 -77.7372 182° South 210 242 18,500 360 Climbing Cleveland Center
06:07AM 42.0419 -77.7397 182° South 208 239 18,900 420 Climbing Cleveland Center
06:08AM 41.9742 -77.7422 182° South 206 237 19,400 360 Climbing Cleveland Center
06:09AM 41.9189 -77.7444 182° South 202 232 19,700 300 Climbing Cleveland Center
06:10AM 41.8694 -77.7497 185° South 201 231 20,100 480 Climbing Cleveland Center
06:11AM 41.8172 -77.7508 181° South 193 222 20,700 480 Climbing Cleveland Center
06:12AM 41.7650 -77.7542 183° South 191 220 21,100 360 Climbing Cleveland Center
06:13AM 41.7131 -77.7564 182° South 190 219 21,500 420 Climbing Cleveland Center
06:14AM 41.6606 -77.7594 182° South 189 217 22,000 420 Climbing Cleveland Center
06:15AM 41.6086 -77.7606 181° South 189 217 22,400 360 Climbing Cleveland Center
06:16AM 41.5564 -77.7631 182° South 188 216 22,800 360 Climbing Cleveland Center
06:17AM 41.4931 -77.7661 182° South 190 219 23,200 360 Climbing Cleveland Center
06:18AM 41.4419 -77.7675 181° South 189 217 23,600 360 Climbing Cleveland Center
06:19AM 41.3897 -77.7692 181° South 188 216 24,000 300 Climbing Cleveland Center
06:20AM 41.3400 -77.7717 182° South 183 211 24,300 300 Climbing Cleveland Center
06:21AM 41.2900 -77.7736 182° South 182 209 24,700 300 Climbing Cleveland Center
06:22AM 41.2403 -77.7756 182° South 181 208 25,000 120 Climbing Cleveland Center
06:23AM 41.1897 -77.7775 182° South 181 208 25,000  Level Cleveland Center
06:24AM 41.1372 -77.7800 182° South 185 213 25,000  Level Cleveland Center
06:25AM 41.0828 -77.7819 182° South 192 221 25,000  Level Cleveland Center
06:26AM 41.0283 -77.7833 181° South 193 222 25,000  Level Cleveland Center
06:27AM 40.9742 -77.7861 182° South 195 224 25,000  Level Cleveland Center
06:28AM 40.9197 -77.7883 182° South 195 224 25,000  Level Cleveland Center
06:29AM 40.8656 -77.7908 182° South 195 224 25,000  Level Cleveland Center
06:30AM 40.7864 -77.7933 181° South 196 226 25,000  Level New York Center
06:31AM 40.7319 -77.7961 182° South 196 226 25,000  Level New York Center
06:32AM 40.6778 -77.7986 182° South 201 231 25,000  Level New York Center
06:33AM 40.6233 -77.8014 182° South 201 231 25,000  Level New York Center
06:34AM 40.5644 -77.7761 162° South 201 231 25,000  Level New York Center
06:35AM 40.5058 -77.7456 158° South 212 244 25,000  Level New York Center
06:36AM 40.4492 -77.7153 158° South 223 257 25,000  Level New York Center
06:37AM 40.3906 -77.6822 157° South 228 262 25,000  Level New York Center
06:38AM 40.3422 -77.6175 134° Southeast 228 262 25,000  Level New York Center
06:39AM 40.2894 -77.5550 138° Southeast 247 284 25,000  Level New York Center
06:40AM 40.2342 -77.5006 143° Southeast 253 291 25,000 -180 Level New York Center
06:41AM 40.1789 -77.4492 145° Southeast 253 291 24,700 -600 Descending New York Center
06:42AM 40.1197 -77.3864 141° Southeast 259 298 23,900 -780 Descending New York Center
06:43AM 40.0600 -77.3372 148° Southeast 273 314 23,200 -480 Descending New York Center
06:44AM 39.9983 -77.2856 147° Southeast 273 314 23,000 -120 Descending New York Center
06:45AM 39.9336 -77.2497 157° South 259 298 23,000  Level New York Center
06:46AM 39.8706 -77.2167 158° South 248 285 23,000  Level New York Center
06:47AM 39.8014 -77.1525 145° Southeast 259 298 23,000  Level Washington Center
06:48AM 39.7417 -77.1081 150° Southeast 259 298 23,000  Level Washington Center
06:49AM 39.6817 -77.0611 149° Southeast 254 292 23,000  Level Washington Center
06:50AM 39.6219 -77.0139 149° Southeast 254 292 23,000  Level Washington Center
06:51AM 39.5619 -76.9669 149° Southeast 249 287 23,000  Level Washington Center
06:52AM 39.5000 -76.9200 150° Southeast 249 287 23,000  Level Washington Center
06:53AM 39.4400 -76.8733 149° Southeast 249 287 23,000  Level Washington Center
06:54AM 39.3822 -76.8294 150° Southeast 249 287 23,000  Level Washington Center
06:55AM 39.3222 -76.7800 147° Southeast 249 287 23,000  Level Washington Center
06:56AM 39.2622 -76.7361 150° Southeast 249 287 23,000  Level Washington Center
06:57AM 39.2125 -76.6981 149° Southeast 244 281 23,000  Level Washington Center
06:58AM 39.1525 -76.6542 150° Southeast 244 281 23,000  Level Washington Center
06:59AM 39.0922 -76.6347 166° South 239 275 23,000  Level Washington Center
07:00AM 39.0339 -76.6283 175° South 220 253 23,000  Level Washington Center
07:02AM 38.9758 -76.6089 165° South 220 253 23,000  Level Washington Center
07:02AM 38.9175 -76.5894 165° South 220 253 23,000  Level Washington Center
07:04AM 38.8572 -76.5728 168° South 220 253 23,000  Level Washington Center
07:05AM 38.7969 -76.5533 166° South 220 253 23,000  Level Washington Center
07:05AM 38.7386 -76.5364 167° South 220 253 23,000  Level Washington Center
07:06AM 38.6783 -76.5197 168° South 220 253 23,000  Level Washington Center
07:07AM 38.6181 -76.5031 168° South 220 253 23,000  Level Washington Center
07:08AM 38.5597 -76.4864 167° South 220 253 23,000  Level Washington Center
07:09AM 38.4994 -76.4672 166° South 220 253 23,000  Level Washington Center
07:11AM 38.4392 -76.4506 168° South 220 253 23,000  Level Washington Center
07:11AM 38.3789 -76.4314 166° South 220 253 23,000  Level Washington Center
07:12AM 38.3206 -76.4147 167° South 220 253 23,000 -240 Level Washington Center
07:13AM 38.2661 -76.4353 197° South 207 238 22,600 -960 Descending Washington Center
07:14AM 38.2242 -76.4797 220° Southwest 184 212 21,100 -1,500 Descending Washington Center
07:15AM 38.1758 -76.5161 211° Southwest 203 234 19,700 -1,740 Descending Washington Center
07:16AM 38.1233 -76.5525 209° Southwest 208 239 17,700 -2,040 Descending Washington Center
07:17AM 38.0772 -76.5808 206° Southwest 208 239 15,600 -2,160 Descending Washington Center
07:18AM 38.0269 -76.6172 210° Southwest 208 239 13,400 -2,100 Descending Washington Center
07:19AM 37.9786 -76.6533 210° Southwest 208 239 11,400 -1,740 Descending Washington Center
07:21AM 37.9325 -76.6897 212° Southwest 208 239 10,000 -780 Descending Washington Center
07:21AM 37.8928 -76.7181 209° Southwest 196 226 9,900 -660 Descending Washington Center
07:22AM 37.8508 -76.7436 206° Southwest 184 212 8,800 -1,260 Descending Washington Center
07:23AM 37.8067 -76.7744 209° Southwest 184 212 7,400 -1,440 Descending Washington Center
07:25AM 37.7603 -76.8106 212° Southwest 184 212 5,900 -1,380 Descending Washington Center
07:27AM 37.6500 -76.9000 213° Southwest 222 255 3,200 -1,020 Descending Potomac TRACON
07:28AM 37.6000 -76.9333 208° Southwest 237 273 3,000 -120 Descending Potomac TRACON
07:29AM 37.5667 -77.0000 238° Southwest 203 234 3,000  Level Potomac TRACON
07:30AM 37.5333 -77.0500 230° Southwest 213 245 3,000  Level Potomac TRACON
07:30AM 37.5000 -77.1167 238° Southwest 206 237 3,000 -240 Level Potomac TRACON
07:31AM 37.4833 -77.1667 247° West 203 234 2,600 -480 Descending Potomac TRACON
07:32AM 37.4667 -77.2333 253° West 191 220 2,100 -900 Descending Potomac TRACON
07:33AM 37.4667 -77.2833 270° West 163 188 900 -1,200 Descending Potomac TRACON
07:35AM 37.5000 -77.3167 North  Level FlightAware Approximate
07:42AM 37.5052 -77.3197 North  Level Estimated
07:43AM 37.5000 -77.3167 North  Level FlightAware Approximate